Time;durP1;ratioP1;P1;durP2;ratioP2;P2;SDS_P1;SDS_P2;PMS_P1;PMS_P2;Temp;Humidity;BMP_temperature;BMP_pressure;BME280_temperature;BME280_humidity;BME280_pressure;Samples;Min_cycle;Max_cycle;Signal;HPM_P1;HPM_P2
2023/07/23 00:08:01;;;;;;;10.50;4.95;;;;;;;30.41;40.43;100835.13;20889177;28;20056;-74
2023/07/23 00:18:25;;;;;;;11.23;4.55;;;;;;;30.29;41.06;100827.75;20896000;28;20048;-73
2023/07/23 00:28:48;;;;;;;8.38;4.40;;;;;;;30.31;40.94;100832.16;20890341;28;20045;-73
2023/07/23 00:39:12;;;;;;;12.32;4.90;;;;;;;30.17;40.93;100834.88;20900511;28;20049;-74
2023/07/23 00:49:34;;;;;;;8.70;4.47;;;;;;;30.15;41.04;100825.06;20863329;28;20079;-72
2023/07/23 00:59:58;;;;;;;12.77;5.00;;;;;;;30.11;41.37;100818.94;20905516;28;20053;-74
2023/07/23 01:10:21;;;;;;;8.82;4.25;;;;;;;30.04;41.68;100813.03;20896289;28;20052;-73
2023/07/23 01:20:45;;;;;;;10.27;4.65;;;;;;;29.85;41.99;100815.13;20886788;28;20044;-73
2023/07/23 01:31:02;;;;;;;12.55;5.45;;;;;;;29.79;42.39;100820.97;20932833;28;20548;-74
2023/07/23 01:41:25;;;;;;;9.88;5.00;;;;;;;29.73;42.60;100821.38;20887678;28;20077;-73
2023/07/23 01:51:30;;;;;;;11.88;5.13;;;;;;;29.47;43.38;100811.22;20937272;28;20064;-73
2023/07/23 02:01:53;;;;;;;10.45;5.32;;;;;;;29.27;43.87;100818.75;20905916;28;20064;-73
2023/07/23 02:12:05;;;;;;;12.40;5.20;;;;;;;29.19;44.83;100815.59;20914446;28;20063;-73
2023/07/23 02:22:27;;;;;;;15.40;5.35;;;;;;;28.87;45.98;100809.41;20896523;28;20076;-74
2023/07/23 02:32:51;;;;;;;14.43;4.97;;;;;;;28.61;47.28;100820.00;20902498;28;20371;-74
2023/07/23 02:42:58;;;;;;;12.52;5.07;;;;;;;28.44;48.03;100810.97;20897505;28;20056;-74
2023/07/23 02:53:05;;;;;;;8.63;4.82;;;;;;;28.37;47.83;100814.13;20919544;28;20049;-73
2023/07/23 03:03:28;;;;;;;9.07;5.13;;;;;;;28.23;48.20;100811.31;20881648;28;20053;-73
2023/07/23 03:13:52;;;;;;;10.55;5.47;;;;;;;28.10;48.94;100824.69;20903515;28;20052;-73
2023/07/23 03:24:14;;;;;;;11.80;5.22;;;;;;;27.90;50.15;100824.91;20920605;28;20045;-74
2023/07/23 03:34:19;;;;;;;11.75;5.65;;;;;;;27.84;51.20;100834.28;20911685;28;20056;-73
2023/07/23 03:44:42;;;;;;;8.63;5.25;;;;;;;27.90;51.99;100843.91;20923041;28;20398;-73
2023/07/23 03:55:06;;;;;;;10.32;5.50;;;;;;;28.08;53.57;100856.50;20911250;28;20400;-74
2023/07/23 04:05:09;;;;;;;11.13;5.07;;;;;;;28.27;55.10;100861.81;20953209;28;20037;-73
2023/07/23 04:15:37;;;;;;;10.75;4.70;;;;;;;28.88;56.33;100865.50;20889509;28;20053;-73
2023/07/23 04:26:00;;;;;;;17.83;5.15;;;;;;;29.43;60.76;100873.09;20889142;28;20047;-73
2023/07/23 04:36:26;;;;;;;12.60;5.32;;;;;;;30.03;62.10;100884.78;20902952;28;20060;-74
2023/07/23 04:46:48;;;;;;;10.93;5.25;;;;;;;30.63;62.16;100887.28;20892536;28;20049;-74
2023/07/23 04:57:13;;;;;;;13.35;4.85;;;;;;;31.40;57.93;100889.34;20926181;28;20049;-74
2023/07/23 05:07:35;;;;;;;13.73;4.55;;;;;;;32.05;50.98;100883.84;20893624;28;20052;-74
2023/07/23 05:17:57;;;;;;;10.38;4.72;;;;;;;32.83;43.63;100887.22;20915643;28;20041;-74
2023/07/23 05:28:00;;;;;;;12.93;4.28;;;;;;;33.49;39.66;100894.03;20916053;28;20135;-74
2023/07/23 05:38:05;;;;;;;9.45;4.97;;;;;;;34.31;37.22;100906.69;20980246;28;20044;-75
2023/07/23 05:48:11;;;;;;;10.00;5.18;;;;;;;35.08;34.81;100902.97;20976984;28;20045;-75
2023/07/23 05:58:35;;;;;;;8.98;3.85;;;;;;;35.97;32.99;100907.19;20974745;28;20079;-75
2023/07/23 06:08:58;;;;;;;8.73;4.30;;;;;;;36.84;31.04;100908.47;20898466;28;20534;-75
2023/07/23 06:19:03;;;;;;;10.60;4.20;;;;;;;37.81;29.77;100898.41;20932900;28;20531;-76
2023/07/23 06:29:27;;;;;;;10.98;3.80;;;;;;;38.79;29.21;100907.06;20978778;28;20135;-75
2023/07/23 06:39:51;;;;;;;10.77;3.97;;;;;;;39.31;27.56;100899.00;20973620;28;20036;-76
2023/07/23 06:50:13;;;;;;;17.88;4.35;;;;;;;39.79;27.43;100902.22;20921662;28;20053;-75
2023/07/23 07:00:37;;;;;;;12.07;4.25;;;;;;;39.55;26.34;100902.00;20907595;28;20444;-76
2023/07/23 07:11:00;;;;;;;9.45;4.38;;;;;;;39.69;25.93;100897.78;20920076;28;20045;-76
2023/07/23 07:21:24;;;;;;;8.70;4.60;;;;;;;39.81;26.86;100896.53;20915340;28;20072;-76
2023/07/23 07:31:48;;;;;;;10.60;4.03;;;;;;;39.96;26.97;100899.59;20897285;28;20049;-76
2023/07/23 07:42:11;;;;;;;8.43;3.85;;;;;;;40.04;27.60;100905.19;20909583;28;20045;-76
2023/07/23 07:52:34;;;;;;;11.30;4.45;;;;;;;40.34;27.12;100901.91;20932253;28;20048;-76
2023/07/23 08:02:59;;;;;;;13.00;5.10;;;;;;;40.79;25.66;100903.50;20927184;28;20523;-77
2023/07/23 08:13:21;;;;;;;8.35;4.55;;;;;;;41.05;24.94;100906.16;20923979;28;20080;-77
2023/07/23 08:23:46;;;;;;;12.67;4.47;;;;;;;41.36;24.39;100910.06;20904244;28;20106;-76
2023/07/23 08:34:09;;;;;;;10.80;4.55;;;;;;;41.35;23.74;100922.22;20903489;28;20624;-77
2023/07/23 08:45:19;;;;;;;12.40;4.30;;;;;;;41.70;23.65;100932.09;20922560;28;20041;-76
2023/07/23 08:55:44;;;;;;;12.05;4.45;;;;;;;41.97;23.50;100923.44;20811755;28;20110;-77
2023/07/23 09:06:08;;;;;;;11.07;5.30;;;;;;;42.60;23.21;100916.19;20913021;28;20124;-76
2023/07/23 09:16:31;;;;;;;10.35;4.20;;;;;;;42.81;22.57;100911.75;20899666;28;20060;-76
2023/07/23 09:26:55;;;;;;;13.07;4.80;;;;;;;43.00;22.21;100904.88;20907513;28;20049;-76
2023/07/23 09:37:18;;;;;;;12.57;4.43;;;;;;;43.35;22.06;100897.88;20897718;28;20069;-76
2023/07/23 09:47:29;;;;;;;15.20;5.13;;;;;;;43.36;22.08;100927.44;20891676;28;20368;-76
2023/07/23 09:57:53;;;;;;;11.00;4.80;;;;;;;43.49;22.02;100929.59;20909557;28;20045;-76
2023/07/23 10:07:58;;;;;;;10.98;4.38;;;;;;;43.67;22.10;100936.59;20902351;28;20707;-77
2023/07/23 10:18:25;;;;;;;9.35;4.55;;;;;;;43.85;22.15;100924.28;20917522;28;20152;-77
2023/07/23 10:28:49;;;;;;;11.93;4.60;;;;;;;43.44;22.26;100907.03;20966252;28;20069;-76
2023/07/23 10:39:22;;;;;;;16.70;4.28;;;;;;;43.08;21.75;100895.63;20886512;28;20056;-76
2023/07/23 10:50:13;;;;;;;12.10;4.60;;;;;;;43.30;21.39;100883.69;20892091;28;20480;-77
2023/07/23 11:00:31;;;;;;;14.15;5.43;;;;;;;43.50;21.74;100872.91;20841294;28;20056;-77
2023/07/23 11:11:09;;;;;;;11.73;5.20;;;;;;;43.62;21.74;100875.09;20893778;28;20441;-77
2023/07/23 11:21:32;;;;;;;12.38;5.00;;;;;;;43.75;21.56;100848.53;20919130;28;20126;-77
2023/07/23 11:31:57;;;;;;;14.63;4.97;;;;;;;43.76;21.17;100840.00;20944881;28;20045;-76
2023/07/23 11:42:20;;;;;;;14.02;4.78;;;;;;;43.82;20.92;100832.78;20969149;28;20059;-76
2023/07/23 11:52:47;;;;;;;13.23;4.57;;;;;;;43.62;20.60;100824.13;20990320;28;20075;-77
2023/07/23 12:03:10;;;;;;;21.50;6.00;;;;;;;43.18;20.53;100826.78;20910441;28;20644;-76
2023/07/23 12:13:35;;;;;;;15.52;4.88;;;;;;;42.86;20.88;100831.50;20921409;28;20052;-76
2023/07/23 12:23:57;;;;;;;14.80;5.25;;;;;;;42.41;21.19;100820.25;20977392;28;20040;-76
2023/07/23 12:34:21;;;;;;;17.70;4.80;;;;;;;42.21;22.33;100816.19;21003767;28;20048;-76
2023/07/23 12:44:43;;;;;;;;;;;;;;;42.15;22.32;100806.63;20985759;28;20040;-76
2023/07/23 12:55:08;;;;;;;14.60;4.47;;;;;;;42.46;22.07;100795.59;20985998;28;19924;-77
2023/07/23 13:05:11;;;;;;;13.10;4.85;;;;;;;42.39;22.39;100780.72;20948504;28;20049;-76
2023/07/23 13:15:35;;;;;;;17.55;5.15;;;;;;;42.57;22.13;100763.75;20902955;28;20103;-76
2023/07/23 13:25:57;;;;;;;17.55;5.18;;;;;;;42.30;22.13;100765.97;20919343;28;20044;-76
2023/07/23 13:36:22;;;;;;;16.03;4.97;;;;;;;41.86;22.19;100759.22;20906181;28;20095;-77
2023/07/23 13:46:46;;;;;;;15.45;5.22;;;;;;;41.55;22.59;100761.91;20922653;28;20298;-76
2023/07/23 13:57:11;;;;;;;17.05;5.00;;;;;;;41.61;22.58;100759.31;20908778;28;20045;-75
2023/07/23 14:07:33;;;;;;;18.15;5.40;;;;;;;41.50;22.93;100761.56;20895694;28;20053;-75
2023/07/23 14:17:38;;;;;;;12.90;4.83;;;;;;;41.63;23.39;100757.19;20894945;28;20484;-76
2023/07/23 14:28:02;;;;;;;18.92;4.95;;;;;;;41.50;23.94;100756.88;20889805;28;20412;-75
2023/07/23 14:38:26;;;;;;;16.23;5.57;;;;;;;41.09;23.88;100750.50;20899508;28;20056;-76
2023/07/23 14:48:48;;;;;;;16.27;4.20;;;;;;;41.07;23.60;100744.28;20903036;28;20495;-76
2023/07/23 14:59:13;;;;;;;16.88;5.07;;;;;;;40.70;24.11;100735.59;20886792;28;20049;-76
2023/07/23 15:09:16;;;;;;;11.88;4.97;;;;;;;40.03;25.35;100724.47;20939655;28;20044;-75
2023/07/23 15:19:40;;;;;;;14.20;4.88;;;;;;;39.35;26.19;100715.22;20926614;28;20147;-76
2023/07/23 15:30:03;;;;;;;11.47;4.73;;;;;;;38.53;27.15;100710.06;20926568;28;20045;-75
2023/07/23 15:40:27;;;;;;;16.15;5.60;;;;;;;37.73;28.95;100697.88;20975372;28;20106;-75
2023/07/23 15:50:49;;;;;;;13.38;4.50;;;;;;;37.16;29.87;100696.16;20980547;28;20404;-75
2023/07/23 16:01:13;;;;;;;17.73;5.20;;;;;;;36.69;30.60;100687.78;20988144;28;20057;-75
2023/07/23 16:11:24;;;;;;;24.88;5.40;;;;;;;36.38;31.23;100668.81;20908561;28;20052;-76
2023/07/23 16:21:28;;;;;;;15.73;5.35;;;;;;;36.11;31.78;100675.84;20986706;28;20053;-76
2023/07/23 16:31:51;;;;;;;16.27;4.70;;;;;;;35.95;31.95;100679.16;20980108;28;20451;-75
2023/07/23 16:42:18;;;;;;;16.42;5.28;;;;;;;35.69;32.42;100680.69;20948825;28;20057;-75
2023/07/23 16:52:40;;;;;;;15.40;5.78;;;;;;;35.40;32.73;100679.63;20904531;28;20322;-75
2023/07/23 17:03:04;;;;;;;11.20;4.43;;;;;;;35.07;33.01;100678.84;20924349;28;20053;-75
2023/07/23 17:13:27;;;;;;;14.93;4.57;;;;;;;34.74;33.08;100681.81;20920282;28;20109;-75
2023/07/23 17:23:51;;;;;;;23.13;5.43;;;;;;;34.47;33.39;100676.78;20983791;28;20052;-76
2023/07/23 17:34:13;;;;;;;22.02;5.57;;;;;;;34.20;33.67;100696.41;20966288;28;20044;-75
2023/07/23 17:44:38;;;;;;;13.88;4.15;;;;;;;33.96;33.85;100690.25;20980389;28;20496;-74
2023/07/23 17:55:00;;;;;;;17.30;5.10;;;;;;;33.75;33.72;100692.91;20944670;28;20090;-75
2023/07/23 18:05:25;;;;;;;19.27;5.20;;;;;;;33.56;33.86;100695.38;20944047;28;20056;-74
2023/07/23 18:15:48;;;;;;;20.55;5.68;;;;;;;33.38;33.79;100692.28;20940118;28;20102;-75
2023/07/23 18:26:13;;;;;;;18.83;4.78;;;;;;;33.31;33.95;100709.31;20979843;28;20055;-74
2023/07/23 18:36:36;;;;;;;21.40;4.97;;;;;;;33.15;34.11;100726.91;20953923;28;20590;-74
2023/07/23 18:47:00;;;;;;;15.48;4.82;;;;;;;32.98;34.65;100716.44;20966230;28;20048;-75
2023/07/23 18:57:23;;;;;;;17.67;5.50;;;;;;;32.89;34.16;100705.34;20963231;28;20481;-76
2023/07/23 19:07:47;;;;;;;17.27;4.72;;;;;;;32.90;34.27;100721.63;20960306;28;20103;-75
2023/07/23 19:18:10;;;;;;;14.70;4.72;;;;;;;32.81;33.92;100719.63;20962667;28;20051;-76
2023/07/23 19:28:34;;;;;;;18.90;4.22;;;;;;;32.74;34.35;100719.25;20974664;28;20068;-74
2023/07/23 19:38:57;;;;;;;19.05;4.50;;;;;;;32.64;34.13;100729.09;20856227;28;20138;-76
2023/07/23 19:49:22;;;;;;;16.05;4.90;;;;;;;32.57;34.01;100746.97;20989099;28;20106;-76
2023/07/23 19:59:44;;;;;;;19.33;4.63;;;;;;;32.47;33.74;100736.84;20959219;28;20104;-74
2023/07/23 20:10:10;;;;;;;15.70;4.25;;;;;;;32.33;33.45;100735.16;20908413;28;20489;-76
2023/07/23 20:20:18;;;;;;;14.88;3.90;;;;;;;32.25;33.74;100743.94;20889626;28;20049;-74
2023/07/23 20:30:43;;;;;;;15.02;3.97;;;;;;;32.20;33.66;100729.75;20852593;28;20053;-75
2023/07/23 20:41:06;;;;;;;17.33;4.30;;;;;;;32.15;33.35;100726.50;20910123;28;20052;-75
2023/07/23 20:51:31;;;;;;;11.55;3.38;;;;;;;32.05;33.26;100709.00;20897476;28;20127;-74
2023/07/23 21:01:53;;;;;;;17.25;4.95;;;;;;;31.98;32.95;100713.16;20899899;28;20056;-75
2023/07/23 21:12:17;;;;;;;13.95;3.65;;;;;;;31.90;32.65;100705.53;20911614;28;20476;-74
2023/07/23 21:22:40;;;;;;;13.73;4.03;;;;;;;31.89;32.76;100702.94;20914843;28;20048;-75
2023/07/23 21:33:04;;;;;;;13.93;3.50;;;;;;;31.86;32.20;100693.09;20899771;28;20095;-74
2023/07/23 21:43:26;;;;;;;12.55;3.70;;;;;;;31.82;32.06;100698.91;20893206;28;20048;-75
2023/07/23 21:53:50;;;;;;;14.02;3.55;;;;;;;31.81;32.52;100683.50;20937178;28;20397;-75
2023/07/23 22:04:13;;;;;;;14.68;3.88;;;;;;;31.76;32.13;100686.59;20867034;28;20056;-75
2023/07/23 22:14:37;;;;;;;16.20;4.32;;;;;;;31.70;32.40;100692.50;20918411;28;20049;-74
2023/07/23 22:24:43;;;;;;;18.50;3.78;;;;;;;31.73;32.44;100686.81;20901191;28;20202;-74
2023/07/23 22:35:08;;;;;;;14.13;3.85;;;;;;;31.86;32.71;100681.31;20880314;28;20092;-75
2023/07/23 22:45:31;;;;;;;13.48;4.25;;;;;;;31.66;32.92;100689.13;20888953;28;20040;-74
2023/07/23 22:55:55;;;;;;;15.02;4.05;;;;;;;31.46;32.73;100677.88;20899915;28;20054;-76
2023/07/23 23:06:19;;;;;;;13.00;4.00;;;;;;;31.34;33.11;100676.91;20888585;28;20551;-74
2023/07/23 23:16:43;;;;;;;12.73;3.75;;;;;;;31.16;33.56;100679.13;20893376;28;20055;-74
2023/07/23 23:27:06;;;;;;;11.50;3.38;;;;;;;30.96;34.23;100662.38;20910249;28;20173;-74
2023/07/23 23:37:30;;;;;;;14.38;3.60;;;;;;;30.71;34.76;100652.34;20908301;28;20057;-74
2023/07/23 23:47:53;;;;;;;16.77;4.40;;;;;;;30.60;34.68;100644.88;20901334;28;20099;-74
2023/07/23 23:58:17;;;;;;;13.52;4.10;;;;;;;30.55;34.85;100643.47;20904650;28;20445;-75
